Maloy, Iowa
Current Conditions -  °F | °C
As of 6:55 PM on Friday 24 Oct 2014 (Local Time) from KCSQ Reporting Station
Clear Clear  
Wind Chill: 66°   Ceiling: Unl
Heat Index: 66°   Visibility: 10mi
Dew Point: 63°   Wind: 0mph
Humidity: 88%   Direction: NA
Pressure: 29.93"   Gusts: NA
Location:  40.6485°N, 94.5286°W
Report Text: KCSQ 242355Z AUTO 00000KT 10SM CLR 19/17 A2993 RMK AO2
Loading
Personal Weather Stations






























Interactive Weather Map
Tropical Storm Tracking
New forecast layout! Learn more

10-Day Weather Forecast

Advertisements
Track Severe Weather on mobile